Active alerts


No alerts


weather webcam more information weather webcam


Thunder radar more information blitzortung!


Rain radar more information rain snow radar


Visit our other weather sites:

Template documentation
and downloads

And another site


Nearby METAR Reports

   
EBBR - Brussels International Airport, Belgium
Distance from station: W 9 mi
Updated: Jan 27 2021 5:50 pm
Mostly Cloudy  
Mostly Cloudy  
   Wind: South 5.8 mph
Wind: South 5.8 mph
Temperature: 42.8°F
Wind Chill: 39.2°F
Dew Point: 41°F
Humidity: 93%
Barometer: 29.85 inHg
Clouds: Mostly Cloudy
Visibility: 4 mi
Cloud details: Mostly Cloudy 600 ft,
Mostly Cloudy 1200 ft
EBBR 272350Z 19005KT 7000 BKN006 BKN012 06/05 Q1011 TEMPO 3500 BR BKN004
EBBE - Beauvechain (Bevekom), Belgium
Distance from station: SSE 10 mi
Updated: Jan 26 2021 12:55 pm
NOT Current
Mostly Cloudy  
Mostly Cloudy  
   Wind: SSW 13.8 mph
Wind: SSW 13.8 mph
Temperature: 35.6°F
Wind Chill: 26.6°F
Dew Point: 28.4°F
Humidity: 75%
Barometer: 30.06 inHg
Clouds: Mostly Cloudy
Visibility: More than 6 mi
Cloud details: Mostly Cloudy 7000 ft,
Mostly Cloudy 15000 ft
EBBE 261855Z 21012KT 9999 BKN070 BKN150 02/M02 Q1018 BLU BLU
EBDT - Schaffen, Belgium
Distance from station: ENE 18 mi
Updated: Jan 26 2021 12:55 pm
NOT Current
Overcast  
Overcast  
   Wind: SSW 8.1 mph
Wind: SSW 8.1 mph
Temperature: 37.4°F
Wind Chill: 30.2°F
Dew Point: 30.2°F
Humidity: 75%
Barometer: 30.06 inHg
Clouds: Overcast
Visibility: More than 6 mi
Cloud details: Overcast 4900 ft
EBDT 261855Z AUTO 20007KT 9999 OVC049/// 03/M01 Q1018 BLU
EBAW - Antwerp/Deurne, Belgium
Distance from station: NNW 23 mi
Updated: Jan 27 2021 5:50 pm
Mist, Overcast  
Mist, Overcast  
   Wind: SW 5.8 mph
Wind: SW 5.8 mph
Temperature: 44.6°F
Wind Chill: 41°F
Dew Point: 42.8°F
Humidity: 93%
Barometer: 29.85 inHg
Clouds: Overcast
Visibility: 1 mi
Cloud details: Overcast 200 ft
EBAW 272350Z AUTO 22005KT 2100 BR OVC002/// 07/06 Q1011
EBCI - Charleroi/Gosselies, Belgium
Distance from station: SSW 32 mi
Updated: Jan 27 2021 5:50 pm
Light Drizzle, Mist, Overcast  
Light Drizzle, Mist, Overcast  
   Wind: SSW 9.2 mph
Wind: SSW 9.2 mph
Temperature: 41°F
Wind Chill: 35.6°F
Dew Point: 39.2°F
Humidity: 93%
Barometer: 29.85 inHg
Clouds: Overcast
Visibility: 1 mi
Cloud details: Partly Cloudy 200 ft,
Overcast 300 ft
EBCI 272350Z 20008KT 1200 R24/P2000N -DZ BR SCT002 OVC003 05/04 Q1011 BECMG 1800 -DZRA
EBLG - Bierset/Liege, Belgium
Distance from station: ESE 38 mi
Updated: Jan 27 2021 5:50 pm
Mist, Light Drizzle, Overcast  
Mist, Light Drizzle, Overcast  
   Wind: South 9.2 mph
Wind: South 9.2 mph
Temperature: 39.2°F
Wind Chill: 33.8°F
Dew Point: 37.4°F
Humidity: 93%
Barometer: 29.85 inHg
Clouds: Overcast
Visibility: 1 mi
Cloud details: Partly Cloudy 200 ft,
Mostly Cloudy 300 ft,
Overcast 400 ft
EBLG 272350Z 18008KT 160V220 1700 BR -DZ SCT002 BKN003 OVC004 04/03 Q1011 TEMPO 1400 -DZ

Script developed by  Saratoga-weather.org Adapted for the template by  Weerstation Leuven

You find our weather info also at:

Weather Underground

Midwestern Weather Network

Citizen Weather Observer Program (CWOP)

HAMweather, WeatherForYou, PWS Weather

Equipment we use:

Weather-station
Davis VP2

Weather-program
Cumulus

Davis VP2

Cumulus